Terminal Aerodrome Forecast
Issued by NWS

Home | Current Version | Previous Version | Text Only | Print | Product List | Glossary On
Versions: 1 2 3 4 5 6 7 8 9 10 11 12 13
369
FTUS43 KDLH 240934 AAA
TAFHYR
TAF AMD
KHYR 240934Z 2410/2506 06005KT P6SM SKC
     FM241400 13012G20KT P6SM BKN120
     FM250000 15008KT P6SM BKN090=

USA.gov is the U.S. government's official web portal to all federal, state and local government web resources and services.